sensor_id;sensor_type;location;lat;lon;timestamp;temperature;humidity
84440;SHT31;74675;51.980;5.730;2024-01-06T00:01:12;8.8;75.1
84440;SHT31;74675;51.980;5.730;2024-01-06T00:03:42;8.7;75.6
84440;SHT31;74675;51.980;5.730;2024-01-06T00:06:13;8.7;75.5
84440;SHT31;74675;51.980;5.730;2024-01-06T00:08:42;8.6;75.6
84440;SHT31;74675;51.980;5.730;2024-01-06T00:11:10;8.6;75.7
84440;SHT31;74675;51.980;5.730;2024-01-06T00:13:39;8.6;76.2
84440;SHT31;74675;51.980;5.730;2024-01-06T00:16:10;8.6;76.5
84440;SHT31;74675;51.980;5.730;2024-01-06T00:18:38;8.6;76.7
84440;SHT31;74675;51.980;5.730;2024-01-06T00:21:08;8.6;76.8
84440;SHT31;74675;51.980;5.730;2024-01-06T00:23:36;8.6;76.4
84440;SHT31;74675;51.980;5.730;2024-01-06T00:26:05;8.6;75.7
84440;SHT31;74675;51.980;5.730;2024-01-06T00:28:35;8.6;75.5
84440;SHT31;74675;51.980;5.730;2024-01-06T00:31:04;8.6;75.5
84440;SHT31;74675;51.980;5.730;2024-01-06T00:33:33;8.6;75.2
84440;SHT31;74675;51.980;5.730;2024-01-06T00:36:02;8.6;75.2
84440;SHT31;74675;51.980;5.730;2024-01-06T00:38:30;8.6;75.0
84440;SHT31;74675;51.980;5.730;2024-01-06T00:40:59;8.6;75.4
84440;SHT31;74675;51.980;5.730;2024-01-06T00:43:27;8.6;75.3
84440;SHT31;74675;51.980;5.730;2024-01-06T00:45:56;8.6;75.4
84440;SHT31;74675;51.980;5.730;2024-01-06T00:48:24;8.6;75.0
84440;SHT31;74675;51.980;5.730;2024-01-06T00:50:53;8.5;75.3
84440;SHT31;74675;51.980;5.730;2024-01-06T00:53:21;8.5;75.4
84440;SHT31;74675;51.980;5.730;2024-01-06T00:55:50;8.5;74.7
84440;SHT31;74675;51.980;5.730;2024-01-06T00:58:18;8.5;74.8
84440;SHT31;74675;51.980;5.730;2024-01-06T01:00:47;8.5;74.7
84440;SHT31;74675;51.980;5.730;2024-01-06T01:03:16;8.5;75.5
84440;SHT31;74675;51.980;5.730;2024-01-06T01:05:44;8.5;75.2
84440;SHT31;74675;51.980;5.730;2024-01-06T01:08:13;8.5;74.8
84440;SHT31;74675;51.980;5.730;2024-01-06T01:10:41;8.5;74.6
84440;SHT31;74675;51.980;5.730;2024-01-06T01:13:11;8.4;74.4
84440;SHT31;74675;51.980;5.730;2024-01-06T01:15:39;8.4;74.5
84440;SHT31;74675;51.980;5.730;2024-01-06T01:18:08;8.4;75.1
84440;SHT31;74675;51.980;5.730;2024-01-06T01:20:36;8.4;75.3
84440;SHT31;74675;51.980;5.730;2024-01-06T01:23:05;8.4;74.9
84440;SHT31;74675;51.980;5.730;2024-01-06T01:25:34;8.4;74.7
84440;SHT31;74675;51.980;5.730;2024-01-06T01:28:02;8.4;75.1
84440;SHT31;74675;51.980;5.730;2024-01-06T01:30:31;8.4;74.1
84440;SHT31;74675;51.980;5.730;2024-01-06T01:33:00;8.4;74.4
84440;SHT31;74675;51.980;5.730;2024-01-06T01:35:29;8.4;73.8
84440;SHT31;74675;51.980;5.730;2024-01-06T01:37:57;8.3;74.3
84440;SHT31;74675;51.980;5.730;2024-01-06T01:40:26;8.3;74.5
84440;SHT31;74675;51.980;5.730;2024-01-06T01:42:56;8.2;73.8
84440;SHT31;74675;51.980;5.730;2024-01-06T01:45:25;8.2;74.8
84440;SHT31;74675;51.980;5.730;2024-01-06T01:47:55;8.2;74.8
84440;SHT31;74675;51.980;5.730;2024-01-06T01:50:24;8.2;74.9
84440;SHT31;74675;51.980;5.730;2024-01-06T01:52:54;8.1;74.8
84440;SHT31;74675;51.980;5.730;2024-01-06T01:55:23;8.1;75.1
84440;SHT31;74675;51.980;5.730;2024-01-06T01:57:53;8.1;75.1
84440;SHT31;74675;51.980;5.730;2024-01-06T02:00:21;8.1;75.0
84440;SHT31;74675;51.980;5.730;2024-01-06T02:02:50;8.1;75.3
84440;SHT31;74675;51.980;5.730;2024-01-06T02:05:21;8.0;74.6
84440;SHT31;74675;51.980;5.730;2024-01-06T02:07:49;8.0;74.6
84440;SHT31;74675;51.980;5.730;2024-01-06T02:10:19;7.9;75.6
84440;SHT31;74675;51.980;5.730;2024-01-06T02:12:48;7.9;76.1
84440;SHT31;74675;51.980;5.730;2024-01-06T02:15:18;7.9;76.0
84440;SHT31;74675;51.980;5.730;2024-01-06T02:17:47;7.9;76.3
84440;SHT31;74675;51.980;5.730;2024-01-06T02:20:16;7.9;75.7
84440;SHT31;74675;51.980;5.730;2024-01-06T02:22:47;7.9;75.5
84440;SHT31;74675;51.980;5.730;2024-01-06T02:25:20;7.8;75.4
84440;SHT31;74675;51.980;5.730;2024-01-06T02:27:48;7.8;75.8
84440;SHT31;74675;51.980;5.730;2024-01-06T02:30:19;7.8;76.2
84440;SHT31;74675;51.980;5.730;2024-01-06T02:32:47;7.7;76.2
84440;SHT31;74675;51.980;5.730;2024-01-06T02:35:17;7.7;76.3
84440;SHT31;74675;51.980;5.730;2024-01-06T02:37:45;7.7;76.2
84440;SHT31;74675;51.980;5.730;2024-01-06T02:40:14;7.6;76.6
84440;SHT31;74675;51.980;5.730;2024-01-06T02:42:45;7.6;76.9
84440;SHT31;74675;51.980;5.730;2024-01-06T02:45:13;7.6;76.2
84440;SHT31;74675;51.980;5.730;2024-01-06T02:47:42;7.6;75.8
84440;SHT31;74675;51.980;5.730;2024-01-06T02:50:11;7.5;76.4
84440;SHT31;74675;51.980;5.730;2024-01-06T02:52:39;7.5;76.2
84440;SHT31;74675;51.980;5.730;2024-01-06T02:55:08;7.5;76.2
84440;SHT31;74675;51.980;5.730;2024-01-06T02:57:37;7.5;76.7
84440;SHT31;74675;51.980;5.730;2024-01-06T03:00:08;7.5;77.1
84440;SHT31;74675;51.980;5.730;2024-01-06T03:02:37;7.5;76.0
84440;SHT31;74675;51.980;5.730;2024-01-06T03:05:08;7.5;76.5
84440;SHT31;74675;51.980;5.730;2024-01-06T03:07:37;7.5;76.3
84440;SHT31;74675;51.980;5.730;2024-01-06T03:10:06;7.5;76.2
84440;SHT31;74675;51.980;5.730;2024-01-06T03:12:35;7.5;76.4
84440;SHT31;74675;51.980;5.730;2024-01-06T03:15:03;7.5;76.1
84440;SHT31;74675;51.980;5.730;2024-01-06T03:17:33;7.5;75.9
84440;SHT31;74675;51.980;5.730;2024-01-06T03:20:01;7.4;76.4
84440;SHT31;74675;51.980;5.730;2024-01-06T03:22:30;7.4;76.6
84440;SHT31;74675;51.980;5.730;2024-01-06T03:24:58;7.4;76.6
84440;SHT31;74675;51.980;5.730;2024-01-06T03:27:27;7.4;77.0
84440;SHT31;74675;51.980;5.730;2024-01-06T03:29:55;7.5;76.7
84440;SHT31;74675;51.980;5.730;2024-01-06T03:32:24;7.5;76.5
84440;SHT31;74675;51.980;5.730;2024-01-06T03:34:54;7.5;76.9
84440;SHT31;74675;51.980;5.730;2024-01-06T03:37:23;7.5;77.1
84440;SHT31;74675;51.980;5.730;2024-01-06T03:39:51;7.6;76.5
84440;SHT31;74675;51.980;5.730;2024-01-06T03:42:20;7.6;76.2
84440;SHT31;74675;51.980;5.730;2024-01-06T03:44:48;7.7;76.1
84440;SHT31;74675;51.980;5.730;2024-01-06T03:47:17;7.7;75.9
84440;SHT31;74675;51.980;5.730;2024-01-06T03:49:46;7.7;75.3
84440;SHT31;74675;51.980;5.730;2024-01-06T03:52:14;7.7;75.0
84440;SHT31;74675;51.980;5.730;2024-01-06T03:54:43;7.7;75.3
84440;SHT31;74675;51.980;5.730;2024-01-06T03:57:12;7.7;74.9
84440;SHT31;74675;51.980;5.730;2024-01-06T03:59:40;7.7;75.3
84440;SHT31;74675;51.980;5.730;2024-01-06T04:02:09;7.7;75.4
84440;SHT31;74675;51.980;5.730;2024-01-06T04:04:38;7.6;75.2
84440;SHT31;74675;51.980;5.730;2024-01-06T04:07:06;7.6;75.5
84440;SHT31;74675;51.980;5.730;2024-01-06T04:09:35;7.6;75.7
84440;SHT31;74675;51.980;5.730;2024-01-06T04:12:04;7.6;76.2
84440;SHT31;74675;51.980;5.730;2024-01-06T04:14:33;7.5;75.9
84440;SHT31;74675;51.980;5.730;2024-01-06T04:17:01;7.5;75.8
84440;SHT31;74675;51.980;5.730;2024-01-06T04:19:30;7.5;75.1
84440;SHT31;74675;51.980;5.730;2024-01-06T04:21:59;7.4;75.7
84440;SHT31;74675;51.980;5.730;2024-01-06T04:24:28;7.4;76.1
84440;SHT31;74675;51.980;5.730;2024-01-06T04:26:56;7.3;76.4
84440;SHT31;74675;51.980;5.730;2024-01-06T04:29:25;7.3;76.2
84440;SHT31;74675;51.980;5.730;2024-01-06T04:31:54;7.2;76.5
84440;SHT31;74675;51.980;5.730;2024-01-06T04:34:24;7.2;76.8
84440;SHT31;74675;51.980;5.730;2024-01-06T04:36:53;7.2;76.9
84440;SHT31;74675;51.980;5.730;2024-01-06T04:39:21;7.2;77.2
84440;SHT31;74675;51.980;5.730;2024-01-06T04:41:50;7.1;76.5
84440;SHT31;74675;51.980;5.730;2024-01-06T04:44:20;7.1;76.4
84440;SHT31;74675;51.980;5.730;2024-01-06T04:46:49;7.1;75.9
84440;SHT31;74675;51.980;5.730;2024-01-06T04:49:17;7.1;76.0
84440;SHT31;74675;51.980;5.730;2024-01-06T04:51:47;7.0;75.5
84440;SHT31;74675;51.980;5.730;2024-01-06T04:54:15;6.9;75.5
84440;SHT31;74675;51.980;5.730;2024-01-06T04:56:44;6.9;75.8
84440;SHT31;74675;51.980;5.730;2024-01-06T04:59:12;6.8;75.8
84440;SHT31;74675;51.980;5.730;2024-01-06T05:01:41;6.8;76.1
84440;SHT31;74675;51.980;5.730;2024-01-06T05:04:09;6.8;76.1
84440;SHT31;74675;51.980;5.730;2024-01-06T05:06:38;6.7;76.5
84440;SHT31;74675;51.980;5.730;2024-01-06T05:09:06;6.7;76.2
84440;SHT31;74675;51.980;5.730;2024-01-06T05:11:35;6.7;76.7
84440;SHT31;74675;51.980;5.730;2024-01-06T05:14:04;6.7;76.8
84440;SHT31;74675;51.980;5.730;2024-01-06T05:16:33;6.7;76.8
84440;SHT31;74675;51.980;5.730;2024-01-06T05:19:01;6.8;76.3
84440;SHT31;74675;51.980;5.730;2024-01-06T05:21:30;6.8;76.2
84440;SHT31;74675;51.980;5.730;2024-01-06T05:23:59;6.8;76.6
84440;SHT31;74675;51.980;5.730;2024-01-06T05:26:27;6.8;75.7
84440;SHT31;74675;51.980;5.730;2024-01-06T05:28:56;6.8;75.9
84440;SHT31;74675;51.980;5.730;2024-01-06T05:31:24;6.7;75.9
84440;SHT31;74675;51.980;5.730;2024-01-06T05:33:53;6.7;75.5
84440;SHT31;74675;51.980;5.730;2024-01-06T05:36:21;6.7;75.7
84440;SHT31;74675;51.980;5.730;2024-01-06T05:38:50;6.7;76.2
84440;SHT31;74675;51.980;5.730;2024-01-06T05:41:18;6.7;76.0
84440;SHT31;74675;51.980;5.730;2024-01-06T05:43:49;6.6;76.1
84440;SHT31;74675;51.980;5.730;2024-01-06T05:46:22;6.6;76.0
84440;SHT31;74675;51.980;5.730;2024-01-06T05:48:51;6.6;75.9
84440;SHT31;74675;51.980;5.730;2024-01-06T05:51:19;6.6;75.1
84440;SHT31;74675;51.980;5.730;2024-01-06T05:53:48;6.5;75.7
84440;SHT31;74675;51.980;5.730;2024-01-06T05:56:23;6.5;75.3
84440;SHT31;74675;51.980;5.730;2024-01-06T05:58:53;6.4;75.3
84440;SHT31;74675;51.980;5.730;2024-01-06T06:01:22;6.4;75.7
84440;SHT31;74675;51.980;5.730;2024-01-06T06:03:51;6.4;76.0
84440;SHT31;74675;51.980;5.730;2024-01-06T06:06:21;6.3;75.6
84440;SHT31;74675;51.980;5.730;2024-01-06T06:08:51;6.3;75.3
84440;SHT31;74675;51.980;5.730;2024-01-06T06:11:22;6.3;75.4
84440;SHT31;74675;51.980;5.730;2024-01-06T06:13:52;6.3;75.2
84440;SHT31;74675;51.980;5.730;2024-01-06T06:16:23;6.2;74.8
84440;SHT31;74675;51.980;5.730;2024-01-06T06:18:51;6.2;75.5
84440;SHT31;74675;51.980;5.730;2024-01-06T06:21:20;6.2;75.8
84440;SHT31;74675;51.980;5.730;2024-01-06T06:23:48;6.2;75.6
84440;SHT31;74675;51.980;5.730;2024-01-06T06:26:17;6.1;75.2
84440;SHT31;74675;51.980;5.730;2024-01-06T06:28:46;6.1;75.6
84440;SHT31;74675;51.980;5.730;2024-01-06T06:31:15;6.1;75.4
84440;SHT31;74675;51.980;5.730;2024-01-06T06:33:43;6.1;75.5
84440;SHT31;74675;51.980;5.730;2024-01-06T06:36:12;6.1;75.2
84440;SHT31;74675;51.980;5.730;2024-01-06T06:38:40;6.1;76.1
84440;SHT31;74675;51.980;5.730;2024-01-06T06:41:09;6.1;75.4
84440;SHT31;74675;51.980;5.730;2024-01-06T06:43:37;6.1;74.9
84440;SHT31;74675;51.980;5.730;2024-01-06T06:46:06;6.0;74.7
84440;SHT31;74675;51.980;5.730;2024-01-06T06:48:34;6.0;75.0
84440;SHT31;74675;51.980;5.730;2024-01-06T06:51:03;6.0;75.6
84440;SHT31;74675;51.980;5.730;2024-01-06T06:53:32;6.0;75.5
84440;SHT31;74675;51.980;5.730;2024-01-06T06:56:00;6.0;75.2
84440;SHT31;74675;51.980;5.730;2024-01-06T06:58:29;6.0;75.7
84440;SHT31;74675;51.980;5.730;2024-01-06T07:00:58;6.0;75.3
84440;SHT31;74675;51.980;5.730;2024-01-06T07:03:27;6.0;75.7
84440;SHT31;74675;51.980;5.730;2024-01-06T07:05:55;6.0;75.4
84440;SHT31;74675;51.980;5.730;2024-01-06T07:08:24;6.0;74.8
84440;SHT31;74675;51.980;5.730;2024-01-06T07:10:52;5.9;74.9
84440;SHT31;74675;51.980;5.730;2024-01-06T07:13:21;5.9;75.0
84440;SHT31;74675;51.980;5.730;2024-01-06T07:15:49;5.9;75.8
84440;SHT31;74675;51.980;5.730;2024-01-06T07:18:18;5.9;74.9
84440;SHT31;74675;51.980;5.730;2024-01-06T07:20:49;5.9;75.0
84440;SHT31;74675;51.980;5.730;2024-01-06T07:23:18;5.9;74.9
84440;SHT31;74675;51.980;5.730;2024-01-06T07:25:46;5.9;76.0
84440;SHT31;74675;51.980;5.730;2024-01-06T07:28:15;5.9;75.0
84440;SHT31;74675;51.980;5.730;2024-01-06T07:30:44;5.9;74.8
84440;SHT31;74675;51.980;5.730;2024-01-06T07:33:13;5.9;74.7
84440;SHT31;74675;51.980;5.730;2024-01-06T07:35:41;5.9;75.2
84440;SHT31;74675;51.980;5.730;2024-01-06T07:38:10;5.9;75.6
84440;SHT31;74675;51.980;5.730;2024-01-06T07:40:39;5.9;75.4
84440;SHT31;74675;51.980;5.730;2024-01-06T07:43:10;5.9;75.1
84440;SHT31;74675;51.980;5.730;2024-01-06T07:45:39;5.9;75.6
84440;SHT31;74675;51.980;5.730;2024-01-06T07:48:08;5.9;75.5
84440;SHT31;74675;51.980;5.730;2024-01-06T07:50:36;5.9;75.9
84440;SHT31;74675;51.980;5.730;2024-01-06T07:53:05;5.9;76.2
84440;SHT31;74675;51.980;5.730;2024-01-06T07:55:34;5.9;75.5
84440;SHT31;74675;51.980;5.730;2024-01-06T07:58:03;5.9;75.1
84440;SHT31;74675;51.980;5.730;2024-01-06T08:00:31;6.0;75.8
84440;SHT31;74675;51.980;5.730;2024-01-06T08:03:00;6.0;75.6
84440;SHT31;74675;51.980;5.730;2024-01-06T08:05:31;6.0;75.4
84440;SHT31;74675;51.980;5.730;2024-01-06T08:07:59;6.0;75.2
84440;SHT31;74675;51.980;5.730;2024-01-06T08:10:28;6.0;75.1
84440;SHT31;74675;51.980;5.730;2024-01-06T08:12:57;6.1;75.5
84440;SHT31;74675;51.980;5.730;2024-01-06T08:15:26;6.1;75.4
84440;SHT31;74675;51.980;5.730;2024-01-06T08:17:55;6.1;75.7
84440;SHT31;74675;51.980;5.730;2024-01-06T08:20:23;6.1;75.1
84440;SHT31;74675;51.980;5.730;2024-01-06T08:22:52;6.2;74.7
84440;SHT31;74675;51.980;5.730;2024-01-06T08:25:21;6.2;75.1
84440;SHT31;74675;51.980;5.730;2024-01-06T08:27:49;6.2;74.3
84440;SHT31;74675;51.980;5.730;2024-01-06T08:30:19;6.2;73.6
84440;SHT31;74675;51.980;5.730;2024-01-06T08:32:50;6.1;73.5
84440;SHT31;74675;51.980;5.730;2024-01-06T08:35:18;6.1;73.7
84440;SHT31;74675;51.980;5.730;2024-01-06T08:37:47;6.0;74.0
84440;SHT31;74675;51.980;5.730;2024-01-06T08:40:16;6.0;74.9
84440;SHT31;74675;51.980;5.730;2024-01-06T08:42:45;5.9;74.6
84440;SHT31;74675;51.980;5.730;2024-01-06T08:45:14;5.9;75.2
84440;SHT31;74675;51.980;5.730;2024-01-06T08:47:42;5.9;75.6
84440;SHT31;74675;51.980;5.730;2024-01-06T08:50:11;5.9;75.6
84440;SHT31;74675;51.980;5.730;2024-01-06T08:52:40;5.9;74.8
84440;SHT31;74675;51.980;5.730;2024-01-06T08:55:09;5.9;75.0
84440;SHT31;74675;51.980;5.730;2024-01-06T08:57:37;5.9;74.3
84440;SHT31;74675;51.980;5.730;2024-01-06T09:00:06;5.9;74.8
84440;SHT31;74675;51.980;5.730;2024-01-06T09:02:35;5.9;73.9
84440;SHT31;74675;51.980;5.730;2024-01-06T09:05:05;5.9;74.4
84440;SHT31;74675;51.980;5.730;2024-01-06T09:07:33;5.9;74.4
84440;SHT31;74675;51.980;5.730;2024-01-06T09:10:02;5.9;73.5
84440;SHT31;74675;51.980;5.730;2024-01-06T09:12:31;5.9;74.4
84440;SHT31;74675;51.980;5.730;2024-01-06T09:14:59;5.9;74.4
84440;SHT31;74675;51.980;5.730;2024-01-06T09:17:28;5.9;74.5
84440;SHT31;74675;51.980;5.730;2024-01-06T09:19:56;5.9;73.7
84440;SHT31;74675;51.980;5.730;2024-01-06T09:22:25;5.9;74.6
84440;SHT31;74675;51.980;5.730;2024-01-06T09:24:53;5.9;75.0
84440;SHT31;74675;51.980;5.730;2024-01-06T09:27:22;5.9;75.2
84440;SHT31;74675;51.980;5.730;2024-01-06T09:29:51;5.9;74.5
84440;SHT31;74675;51.980;5.730;2024-01-06T09:32:19;5.9;74.0
84440;SHT31;74675;51.980;5.730;2024-01-06T09:34:49;5.9;74.0
84440;SHT31;74675;51.980;5.730;2024-01-06T09:37:19;5.9;74.7
84440;SHT31;74675;51.980;5.730;2024-01-06T09:39:48;5.9;74.2
84440;SHT31;74675;51.980;5.730;2024-01-06T09:42:17;5.9;74.1
84440;SHT31;74675;51.980;5.730;2024-01-06T09:44:46;5.9;74.2
84440;SHT31;74675;51.980;5.730;2024-01-06T09:47:20;5.9;74.3
84440;SHT31;74675;51.980;5.730;2024-01-06T09:49:50;5.9;74.5
84440;SHT31;74675;51.980;5.730;2024-01-06T09:52:22;5.9;74.6
84440;SHT31;74675;51.980;5.730;2024-01-06T09:54:54;5.9;74.2
84440;SHT31;74675;51.980;5.730;2024-01-06T09:57:23;5.9;74.2
84440;SHT31;74675;51.980;5.730;2024-01-06T09:59:52;5.9;74.5
84440;SHT31;74675;51.980;5.730;2024-01-06T10:02:21;5.9;73.9
84440;SHT31;74675;51.980;5.730;2024-01-06T10:04:51;5.9;74.6
84440;SHT31;74675;51.980;5.730;2024-01-06T10:07:21;5.9;74.8
84440;SHT31;74675;51.980;5.730;2024-01-06T10:09:50;6.0;75.2
84440;SHT31;74675;51.980;5.730;2024-01-06T10:12:22;6.0;74.9
84440;SHT31;74675;51.980;5.730;2024-01-06T10:14:51;6.1;74.7
84440;SHT31;74675;51.980;5.730;2024-01-06T10:17:20;6.1;73.8
84440;SHT31;74675;51.980;5.730;2024-01-06T10:19:50;6.1;73.5
84440;SHT31;74675;51.980;5.730;2024-01-06T10:22:22;6.1;73.0
84440;SHT31;74675;51.980;5.730;2024-01-06T10:24:53;6.1;73.0
84440;SHT31;74675;51.980;5.730;2024-01-06T10:27:23;6.1;73.1
84440;SHT31;74675;51.980;5.730;2024-01-06T10:29:51;6.1;72.6
84440;SHT31;74675;51.980;5.730;2024-01-06T10:32:20;6.2;74.0
84440;SHT31;74675;51.980;5.730;2024-01-06T10:34:53;6.2;72.7
84440;SHT31;74675;51.980;5.730;2024-01-06T10:37:23;6.2;72.6
84440;SHT31;74675;51.980;5.730;2024-01-06T10:40:06;6.2;72.4
84440;SHT31;74675;51.980;5.730;2024-01-06T10:42:36;6.1;72.2
84440;SHT31;74675;51.980;5.730;2024-01-06T10:45:07;6.1;72.6
84440;SHT31;74675;51.980;5.730;2024-01-06T10:47:37;6.1;73.1
84440;SHT31;74675;51.980;5.730;2024-01-06T10:50:07;6.1;72.7
84440;SHT31;74675;51.980;5.730;2024-01-06T10:52:37;6.1;73.2
84440;SHT31;74675;51.980;5.730;2024-01-06T10:55:06;6.0;72.2
84440;SHT31;74675;51.980;5.730;2024-01-06T10:57:37;6.0;72.4
84440;SHT31;74675;51.980;5.730;2024-01-06T11:00:08;6.0;72.4
84440;SHT31;74675;51.980;5.730;2024-01-06T11:02:39;5.9;73.0
84440;SHT31;74675;51.980;5.730;2024-01-06T11:05:08;5.9;73.6
84440;SHT31;74675;51.980;5.730;2024-01-06T11:07:39;5.9;74.3
84440;SHT31;74675;51.980;5.730;2024-01-06T11:10:14;5.9;74.0
84440;SHT31;74675;51.980;5.730;2024-01-06T11:12:44;5.9;73.1
84440;SHT31;74675;51.980;5.730;2024-01-06T11:15:42;6.0;73.4
84440;SHT31;74675;51.980;5.730;2024-01-06T11:18:33;6.0;73.4
84440;SHT31;74675;51.980;5.730;2024-01-06T11:21:20;6.0;72.2
84440;SHT31;74675;51.980;5.730;2024-01-06T11:24:13;6.0;72.6
84440;SHT31;74675;51.980;5.730;2024-01-06T11:26:50;6.0;72.9
84440;SHT31;74675;51.980;5.730;2024-01-06T11:29:19;6.0;73.0
84440;SHT31;74675;51.980;5.730;2024-01-06T11:32:25;6.0;72.7
84440;SHT31;74675;51.980;5.730;2024-01-06T11:34:55;6.0;72.3
84440;SHT31;74675;51.980;5.730;2024-01-06T11:37:36;6.0;71.9
84440;SHT31;74675;51.980;5.730;2024-01-06T11:40:08;6.0;71.6
84440;SHT31;74675;51.980;5.730;2024-01-06T11:42:41;6.0;72.1
84440;SHT31;74675;51.980;5.730;2024-01-06T11:45:10;6.0;72.5
84440;SHT31;74675;51.980;5.730;2024-01-06T11:47:39;6.0;72.4
84440;SHT31;74675;51.980;5.730;2024-01-06T11:50:08;6.0;72.6
84440;SHT31;74675;51.980;5.730;2024-01-06T11:52:38;6.0;72.3
84440;SHT31;74675;51.980;5.730;2024-01-06T11:55:08;6.0;72.1
84440;SHT31;74675;51.980;5.730;2024-01-06T11:57:37;6.0;72.7
84440;SHT31;74675;51.980;5.730;2024-01-06T12:00:06;5.9;72.3
84440;SHT31;74675;51.980;5.730;2024-01-06T12:02:35;5.9;72.2
84440;SHT31;74675;51.980;5.730;2024-01-06T12:05:04;5.9;72.4
84440;SHT31;74675;51.980;5.730;2024-01-06T12:07:32;5.9;72.7
84440;SHT31;74675;51.980;5.730;2024-01-06T12:10:03;5.8;73.3
84440;SHT31;74675;51.980;5.730;2024-01-06T12:12:34;5.8;72.9
84440;SHT31;74675;51.980;5.730;2024-01-06T12:15:03;5.8;73.1
84440;SHT31;74675;51.980;5.730;2024-01-06T12:17:32;5.8;73.2
84440;SHT31;74675;51.980;5.730;2024-01-06T12:20:01;5.8;73.6
84440;SHT31;74675;51.980;5.730;2024-01-06T12:22:29;5.8;73.9
84440;SHT31;74675;51.980;5.730;2024-01-06T12:24:58;5.8;74.7
84440;SHT31;74675;51.980;5.730;2024-01-06T12:27:29;5.8;74.3
84440;SHT31;74675;51.980;5.730;2024-01-06T12:29:59;5.8;73.6
84440;SHT31;74675;51.980;5.730;2024-01-06T12:32:28;5.9;73.3
84440;SHT31;74675;51.980;5.730;2024-01-06T12:34:57;5.9;73.2
84440;SHT31;74675;51.980;5.730;2024-01-06T12:37:27;5.8;73.4
84440;SHT31;74675;51.980;5.730;2024-01-06T12:39:59;5.8;73.6
84440;SHT31;74675;51.980;5.730;2024-01-06T12:42:27;5.8;73.4
84440;SHT31;74675;51.980;5.730;2024-01-06T12:44:56;5.8;73.7
84440;SHT31;74675;51.980;5.730;2024-01-06T12:47:25;5.8;74.0
84440;SHT31;74675;51.980;5.730;2024-01-06T12:49:54;5.8;73.7
84440;SHT31;74675;51.980;5.730;2024-01-06T12:52:22;5.8;73.6
84440;SHT31;74675;51.980;5.730;2024-01-06T12:54:51;5.8;73.8
84440;SHT31;74675;51.980;5.730;2024-01-06T12:57:19;5.8;73.7
84440;SHT31;74675;51.980;5.730;2024-01-06T12:59:50;5.8;74.1
84440;SHT31;74675;51.980;5.730;2024-01-06T13:02:20;5.8;74.7
84440;SHT31;74675;51.980;5.730;2024-01-06T13:04:49;5.8;75.2
84440;SHT31;74675;51.980;5.730;2024-01-06T13:07:18;5.9;74.1
84440;SHT31;74675;51.980;5.730;2024-01-06T13:09:46;5.9;73.6
84440;SHT31;74675;51.980;5.730;2024-01-06T13:12:15;5.9;73.9
84440;SHT31;74675;51.980;5.730;2024-01-06T13:14:45;5.9;74.6
84440;SHT31;74675;51.980;5.730;2024-01-06T13:17:14;5.9;74.6
84440;SHT31;74675;51.980;5.730;2024-01-06T13:19:42;5.9;73.5
84440;SHT31;74675;51.980;5.730;2024-01-06T13:22:11;5.9;74.0
84440;SHT31;74675;51.980;5.730;2024-01-06T13:24:43;5.9;73.6
84440;SHT31;74675;51.980;5.730;2024-01-06T13:27:12;5.9;73.3
84440;SHT31;74675;51.980;5.730;2024-01-06T13:29:41;5.9;73.2
84440;SHT31;74675;51.980;5.730;2024-01-06T13:32:10;5.9;72.7
84440;SHT31;74675;51.980;5.730;2024-01-06T13:34:40;5.9;73.2
84440;SHT31;74675;51.980;5.730;2024-01-06T13:37:09;5.9;73.2
84440;SHT31;74675;51.980;5.730;2024-01-06T13:39:37;5.9;73.6
84440;SHT31;74675;51.980;5.730;2024-01-06T13:42:06;5.9;73.4
84440;SHT31;74675;51.980;5.730;2024-01-06T13:44:35;5.9;72.8
84440;SHT31;74675;51.980;5.730;2024-01-06T13:47:03;5.9;72.9
84440;SHT31;74675;51.980;5.730;2024-01-06T13:49:33;5.9;73.2
84440;SHT31;74675;51.980;5.730;2024-01-06T13:52:01;5.8;73.3
84440;SHT31;74675;51.980;5.730;2024-01-06T13:54:30;5.8;73.2
84440;SHT31;74675;51.980;5.730;2024-01-06T13:56:58;5.8;73.2
84440;SHT31;74675;51.980;5.730;2024-01-06T13:59:27;5.8;73.3
84440;SHT31;74675;51.980;5.730;2024-01-06T14:01:58;5.8;72.3
84440;SHT31;74675;51.980;5.730;2024-01-06T14:04:27;5.8;71.9
84440;SHT31;74675;51.980;5.730;2024-01-06T14:06:56;5.8;72.4
84440;SHT31;74675;51.980;5.730;2024-01-06T14:09:26;5.7;71.8
84440;SHT31;74675;51.980;5.730;2024-01-06T14:11:55;5.7;72.1
84440;SHT31;74675;51.980;5.730;2024-01-06T14:14:25;5.7;72.2
84440;SHT31;74675;51.980;5.730;2024-01-06T14:16:54;5.7;73.0
84440;SHT31;74675;51.980;5.730;2024-01-06T14:19:23;5.6;73.4
84440;SHT31;74675;51.980;5.730;2024-01-06T14:21:51;5.6;73.3
84440;SHT31;74675;51.980;5.730;2024-01-06T14:24:20;5.6;74.1
84440;SHT31;74675;51.980;5.730;2024-01-06T14:26:50;5.7;73.5
84440;SHT31;74675;51.980;5.730;2024-01-06T14:29:19;5.7;73.5
84440;SHT31;74675;51.980;5.730;2024-01-06T14:31:48;5.7;74.1
84440;SHT31;74675;51.980;5.730;2024-01-06T14:34:17;5.7;74.1
84440;SHT31;74675;51.980;5.730;2024-01-06T14:36:45;5.8;73.3
84440;SHT31;74675;51.980;5.730;2024-01-06T14:39:16;5.8;73.5
84440;SHT31;74675;51.980;5.730;2024-01-06T14:41:48;5.8;73.1
84440;SHT31;74675;51.980;5.730;2024-01-06T14:44:18;5.9;73.7
84440;SHT31;74675;51.980;5.730;2024-01-06T14:46:47;5.9;72.6
84440;SHT31;74675;51.980;5.730;2024-01-06T14:49:17;5.9;72.7
84440;SHT31;74675;51.980;5.730;2024-01-06T14:51:46;5.9;72.5
84440;SHT31;74675;51.980;5.730;2024-01-06T14:54:14;5.9;72.3
84440;SHT31;74675;51.980;5.730;2024-01-06T14:56:45;5.9;72.6
84440;SHT31;74675;51.980;5.730;2024-01-06T14:59:13;5.9;73.6
84440;SHT31;74675;51.980;5.730;2024-01-06T15:01:44;5.9;72.8
84440;SHT31;74675;51.980;5.730;2024-01-06T15:04:13;5.9;72.5
84440;SHT31;74675;51.980;5.730;2024-01-06T15:06:46;6.0;72.6
84440;SHT31;74675;51.980;5.730;2024-01-06T15:09:16;6.0;72.3
84440;SHT31;74675;51.980;5.730;2024-01-06T15:11:46;5.9;72.5
84440;SHT31;74675;51.980;5.730;2024-01-06T15:14:15;5.9;72.6
84440;SHT31;74675;51.980;5.730;2024-01-06T15:16:43;5.9;72.8
84440;SHT31;74675;51.980;5.730;2024-01-06T15:19:12;5.9;72.7
84440;SHT31;74675;51.980;5.730;2024-01-06T15:21:40;5.9;72.8
84440;SHT31;74675;51.980;5.730;2024-01-06T15:24:11;5.9;72.3
84440;SHT31;74675;51.980;5.730;2024-01-06T15:26:42;5.9;72.9
84440;SHT31;74675;51.980;5.730;2024-01-06T15:29:10;5.9;72.9
84440;SHT31;74675;51.980;5.730;2024-01-06T15:31:39;5.9;73.0
84440;SHT31;74675;51.980;5.730;2024-01-06T15:34:09;5.9;72.8
84440;SHT31;74675;51.980;5.730;2024-01-06T15:36:40;5.9;72.3
84440;SHT31;74675;51.980;5.730;2024-01-06T15:39:08;5.9;72.7
84440;SHT31;74675;51.980;5.730;2024-01-06T15:41:39;5.9;72.6
84440;SHT31;74675;51.980;5.730;2024-01-06T15:44:09;5.9;72.7
84440;SHT31;74675;51.980;5.730;2024-01-06T15:46:38;5.9;72.7
84440;SHT31;74675;51.980;5.730;2024-01-06T15:49:07;5.9;72.0
84440;SHT31;74675;51.980;5.730;2024-01-06T15:51:35;5.9;72.2
84440;SHT31;74675;51.980;5.730;2024-01-06T15:54:04;5.9;72.5
84440;SHT31;74675;51.980;5.730;2024-01-06T15:56:33;5.9;71.9
84440;SHT31;74675;51.980;5.730;2024-01-06T15:59:02;5.9;72.0
84440;SHT31;74675;51.980;5.730;2024-01-06T16:01:30;5.9;72.0
84440;SHT31;74675;51.980;5.730;2024-01-06T16:03:59;5.9;72.9
84440;SHT31;74675;51.980;5.730;2024-01-06T16:06:29;5.9;71.9
84440;SHT31;74675;51.980;5.730;2024-01-06T16:08:58;5.9;73.1
84440;SHT31;74675;51.980;5.730;2024-01-06T16:11:27;5.9;72.5
84440;SHT31;74675;51.980;5.730;2024-01-06T16:13:55;5.9;72.7
84440;SHT31;74675;51.980;5.730;2024-01-06T16:16:28;5.9;72.8
84440;SHT31;74675;51.980;5.730;2024-01-06T16:18:56;5.9;72.1
84440;SHT31;74675;51.980;5.730;2024-01-06T16:21:25;5.9;72.7
84440;SHT31;74675;51.980;5.730;2024-01-06T16:23:55;5.9;71.9
84440;SHT31;74675;51.980;5.730;2024-01-06T16:26:23;5.9;72.6
84440;SHT31;74675;51.980;5.730;2024-01-06T16:28:52;6.0;72.8
84440;SHT31;74675;51.980;5.730;2024-01-06T16:31:20;6.0;72.5